Time;durP1;ratioP1;P1;durP2;ratioP2;P2;SDS_P1;SDS_P2;PMS_P1;PMS_P2;Temp;Humidity;BMP_temperature;BMP_pressure;BME280_temperature;BME280_humidity;BME280_pressure;Samples;Min_cycle;Max_cycle;Signal;HPM_P1;HPM_P2
2021/03/04 00:00:33;;;;;;;20.10;14.80;;;7.90;99.90;;;;;;5044141;28;20639;-88
2021/03/04 00:02:59;;;;;;;19.50;15.70;;;8.00;99.90;;;;;;5041303;28;20645;-88
2021/03/04 00:05:25;;;;;;;15.20;13.20;;;7.90;99.90;;;;;;5042022;28;20669;-88
2021/03/04 00:07:52;;;;;;;18.77;13.30;;;7.90;99.90;;;;;;5044568;28;20749;-89
2021/03/04 00:10:21;;;;;;;15.50;13.90;;;7.90;99.90;;;;;;5042605;28;20658;-88
2021/03/04 00:12:48;;;;;;;15.20;13.57;;;8.00;99.90;;;;;;5044806;28;20645;-88
2021/03/04 00:15:16;;;;;;;19.13;13.43;;;7.90;99.90;;;;;;5046279;28;20657;-88
2021/03/04 00:17:44;;;;;;;19.33;15.50;;;7.90;99.90;;;;;;5044176;28;20610;-88
2021/03/04 00:20:12;;;;;;;19.93;14.47;;;7.90;99.90;;;;;;5043467;28;20661;-87
2021/03/04 00:22:39;;;;;;;14.60;13.10;;;7.90;99.90;;;;;;5044513;28;20610;-88
2021/03/04 00:25:08;;;;;;;17.60;14.10;;;7.90;99.90;;;;;;5043970;28;20989;-88
2021/03/04 00:27:35;;;;;;;19.53;14.27;;;7.80;99.90;;;;;;5046726;28;20622;-89
2021/03/04 00:30:01;;;;;;;21.20;15.67;;;7.80;99.90;;;;;;5023889;28;21227;-88
2021/03/04 00:32:28;;;;;;;18.53;16.53;;;7.80;99.90;;;;;;5041557;28;20650;-87
2021/03/04 00:34:54;;;;;;;16.70;15.00;;;7.90;99.90;;;;;;5043741;28;21157;-87
2021/03/04 00:37:20;;;;;;;17.90;16.10;;;7.70;99.90;;;;;;5043748;28;20635;-88
2021/03/04 00:39:47;;;;;;;20.63;16.03;;;7.70;99.90;;;;;;5038474;28;20668;-87
2021/03/04 00:42:14;;;;;;;18.53;15.73;;;7.60;99.90;;;;;;5042669;28;21045;-87
2021/03/04 00:44:42;;;;;;;25.10;20.73;;;7.70;99.90;;;;;;5050641;28;20693;-87
2021/03/04 00:47:08;;;;;;;23.63;20.10;;;7.60;99.90;;;;;;5041973;28;20644;-88
2021/03/04 00:49:34;;;;;;;22.80;20.40;;;7.60;99.90;;;;;;5041167;28;21257;-90
2021/03/04 00:52:00;;;;;;;22.47;20.07;;;7.50;99.90;;;;;;5043008;28;20621;-87
2021/03/04 00:54:27;;;;;;;25.10;20.27;;;7.50;99.90;;;;;;5042739;28;20971;-87
2021/03/04 00:56:53;;;;;;;24.93;20.97;;;7.50;99.90;;;;;;5045613;28;20615;-87
2021/03/04 00:59:20;;;;;;;22.40;19.37;;;7.40;99.90;;;;;;5039194;28;20633;-88
2021/03/04 01:01:48;;;;;;;24.07;19.60;;;7.30;99.90;;;;;;5044505;28;20643;-87
2021/03/04 01:04:14;;;;;;;25.17;18.03;;;7.30;99.90;;;;;;5039346;28;20657;-86
2021/03/04 01:06:41;;;;;;;22.80;18.67;;;7.30;99.90;;;;;;5040542;28;20623;-86
2021/03/04 01:09:07;;;;;;;24.50;20.00;;;7.40;99.90;;;;;;5044085;28;21074;-86
2021/03/04 01:11:34;;;;;;;25.50;18.97;;;7.30;99.90;;;;;;5037038;28;20973;-88
2021/03/04 01:14:01;;;;;;;24.53;19.20;;;7.30;99.90;;;;;;5043629;28;20618;-89
2021/03/04 01:16:27;;;;;;;20.27;18.27;;;7.30;99.90;;;;;;5043418;28;20610;-88
2021/03/04 01:18:54;;;;;;;21.13;19.10;;;7.30;99.90;;;;;;5044912;28;21001;-88
2021/03/04 01:21:20;;;;;;;21.33;18.47;;;7.30;99.90;;;;;;5040557;28;20650;-88
2021/03/04 01:23:47;;;;;;;23.30;18.87;;;7.30;99.90;;;;;;5046103;28;20610;-87
2021/03/04 01:26:13;;;;;;;20.77;17.80;;;7.40;99.90;;;;;;5049598;28;20641;-88
2021/03/04 01:28:40;;;;;;;22.03;19.23;;;7.30;99.90;;;;;;5046560;28;20715;-87
2021/03/04 01:31:06;;;;;;;20.57;17.23;;;7.20;99.90;;;;;;5044609;28;21274;-89
2021/03/04 01:33:33;;;;;;;19.80;17.60;;;7.20;99.90;;;;;;5043883;28;20633;-88
2021/03/04 01:36:00;;;;;;;17.27;15.47;;;7.30;99.90;;;;;;5045728;28;20692;-88
2021/03/04 01:38:26;;;;;;;18.37;16.40;;;7.30;99.90;;;;;;5044681;28;20630;-88
2021/03/04 01:40:52;;;;;;;19.90;17.90;;;7.30;99.90;;;;;;5039624;28;21142;-87
2021/03/04 01:43:19;;;;;;;20.43;17.63;;;7.30;99.90;;;;;;5044564;28;20648;-88
2021/03/04 01:45:45;;;;;;;19.47;16.00;;;7.30;99.90;;;;;;5039942;28;20638;-89
2021/03/04 01:48:12;;;;;;;21.50;16.43;;;7.30;99.90;;;;;;5041704;28;20660;-89
2021/03/04 01:50:38;;;;;;;19.13;15.83;;;7.20;99.90;;;;;;5037765;28;20645;-88
2021/03/04 01:53:05;;;;;;;18.80;15.50;;;7.30;99.90;;;;;;5045229;28;20593;-90
2021/03/04 01:55:33;;;;;;;22.10;15.80;;;7.30;99.90;;;;;;5059678;28;20618;-88
2021/03/04 01:57:59;;;;;;;20.57;17.40;;;7.40;99.90;;;;;;5053680;28;20602;-88
2021/03/04 02:00:26;;;;;;;16.27;14.70;;;7.40;99.90;;;;;;5042953;28;20656;-90
2021/03/04 02:02:53;;;;;;;17.03;14.40;;;7.40;99.90;;;;;;5030634;28;20626;-87
2021/03/04 02:05:20;;;;;;;16.07;14.40;;;7.30;99.90;;;;;;5045751;28;20631;-89
2021/03/04 02:07:58;;;;;;;15.47;13.90;;;7.30;99.90;;;;;;5044428;28;20607;-88
2021/03/04 02:10:33;;;;;;;15.93;14.20;;;7.20;99.90;;;;;;5045615;28;20641;-88
2021/03/04 02:13:09;;;;;;;15.23;13.10;;;7.30;99.90;;;;;;5039083;28;20949;-87
2021/03/04 02:15:38;;;;;;;14.73;12.60;;;7.30;99.90;;;;;;5044840;28;20647;-88
2021/03/04 02:18:12;;;;;;;16.23;12.83;;;7.20;99.90;;;;;;5043173;28;21023;-88
2021/03/04 02:20:54;;;;;;;13.50;12.20;;;7.30;99.90;;;;;;5044492;28;20673;-88
2021/03/04 02:23:39;;;;;;;14.00;12.50;;;7.30;99.90;;;;;;5045821;28;20637;-89
2021/03/04 02:26:23;;;;;;;15.60;12.40;;;7.40;99.90;;;;;;5040597;28;20972;-86
2021/03/04 02:28:55;;;;;;;12.20;11.07;;;7.30;99.90;;;;;;5040699;28;20674;-87
2021/03/04 02:31:22;;;;;;;15.80;14.03;;;7.20;99.90;;;;;;5042754;28;20662;-86
2021/03/04 02:33:49;;;;;;;12.43;11.13;;;7.30;99.90;;;;;;5039961;28;20955;-86
2021/03/04 02:36:16;;;;;;;14.57;12.00;;;7.20;99.90;;;;;;5041196;28;20611;-86
2021/03/04 02:38:44;;;;;;;13.73;11.17;;;7.10;99.90;;;;;;5039055;28;20611;-87
2021/03/04 02:41:11;;;;;;;15.20;10.70;;;7.20;99.90;;;;;;5042582;28;20664;-86
2021/03/04 02:43:40;;;;;;;13.67;11.93;;;7.10;99.90;;;;;;5036975;28;21202;-86
2021/03/04 02:46:09;;;;;;;13.80;12.33;;;7.10;99.90;;;;;;5041824;28;20976;-86
2021/03/04 02:48:36;;;;;;;12.93;11.63;;;7.10;99.90;;;;;;5043806;28;20673;-86
2021/03/04 02:51:04;;;;;;;13.07;11.77;;;7.10;99.90;;;;;;5048386;28;20719;-86
2021/03/04 02:53:31;;;;;;;13.37;12.10;;;7.10;99.90;;;;;;5052205;28;20627;-87
2021/03/04 02:55:58;;;;;;;12.63;10.97;;;7.00;99.90;;;;;;5037927;28;20615;-85
2021/03/04 02:58:26;;;;;;;14.40;13.00;;;6.90;99.90;;;;;;5040663;28;21203;-85
2021/03/04 03:00:53;;;;;;;13.47;11.40;;;6.80;99.90;;;;;;5045299;28;21187;-85
2021/03/04 03:03:23;;;;;;;15.20;13.67;;;6.80;99.90;;;;;;5023305;28;20981;-89
2021/03/04 03:05:50;;;;;;;15.60;13.97;;;6.80;99.90;;;;;;5040923;28;20614;-89
2021/03/04 03:08:20;;;;;;;19.47;14.50;;;6.80;99.90;;;;;;5042397;28;21050;-89
2021/03/04 03:10:47;;;;;;;18.43;16.60;;;6.80;99.90;;;;;;5041139;28;20987;-90
2021/03/04 03:13:15;;;;;;;17.93;15.90;;;6.90;99.90;;;;;;5041075;28;20624;-89
2021/03/04 03:15:42;;;;;;;18.00;16.10;;;6.90;99.90;;;;;;5041135;28;20638;-89
2021/03/04 03:18:08;;;;;;;19.30;16.97;;;6.90;99.90;;;;;;5027886;28;20993;-90
2021/03/04 03:20:36;;;;;;;19.67;16.87;;;6.90;99.90;;;;;;5043568;28;20645;-91
2021/03/04 03:23:04;;;;;;;19.47;16.80;;;6.90;99.90;;;;;;5041219;28;20691;-88
2021/03/04 03:25:30;;;;;;;20.43;18.37;;;6.90;99.90;;;;;;5039375;28;20626;-88
2021/03/04 03:27:57;;;;;;;20.13;18.33;;;6.90;99.90;;;;;;5039009;28;20662;-88
2021/03/04 03:30:25;;;;;;;20.00;17.93;;;6.90;99.90;;;;;;5042304;28;20893;-88
2021/03/04 03:32:57;;;;;;;20.80;17.70;;;6.90;99.90;;;;;;5046235;28;20685;-88
2021/03/04 03:35:24;;;;;;;18.87;16.90;;;6.80;99.90;;;;;;5041846;28;20625;-88
2021/03/04 03:37:55;;;;;;;21.23;17.70;;;6.80;99.90;;;;;;5051560;28;20630;-88
2021/03/04 03:40:22;;;;;;;18.43;16.60;;;6.80;99.90;;;;;;5040034;28;20657;-87
2021/03/04 03:42:49;;;;;;;15.90;14.30;;;6.70;99.90;;;;;;5042717;28;20653;-87
2021/03/04 03:45:18;;;;;;;17.27;15.50;;;6.70;99.90;;;;;;5009762;28;21150;-86
2021/03/04 03:47:46;;;;;;;17.80;15.97;;;6.70;99.90;;;;;;5044126;28;20637;-87
2021/03/04 03:50:15;;;;;;;18.70;15.97;;;6.60;99.90;;;;;;5045264;28;20684;-88
2021/03/04 03:52:43;;;;;;;16.47;14.90;;;6.60;99.90;;;;;;5051618;28;20623;-86
2021/03/04 03:55:12;;;;;;;17.43;15.73;;;6.50;99.90;;;;;;5063345;28;20644;-88
2021/03/04 03:57:40;;;;;;;22.53;18.30;;;6.60;99.90;;;;;;5061477;28;20607;-87
2021/03/04 04:00:08;;;;;;;18.20;16.30;;;6.60;99.90;;;;;;5066565;28;20723;-88
2021/03/04 04:02:35;;;;;;;20.50;18.20;;;6.50;99.90;;;;;;5062957;28;20709;-88
2021/03/04 04:05:01;;;;;;;20.30;18.20;;;6.50;99.90;;;;;;5062036;28;20627;-87
2021/03/04 04:07:28;;;;;;;20.40;17.93;;;6.50;99.90;;;;;;5057955;28;20614;-87
2021/03/04 04:09:56;;;;;;;19.17;17.47;;;6.50;99.90;;;;;;5043102;28;20676;-87
2021/03/04 04:12:23;;;;;;;18.80;16.97;;;6.60;99.90;;;;;;5044936;28;20622;-88
2021/03/04 04:14:50;;;;;;;19.50;17.30;;;6.50;99.90;;;;;;5040273;28;20704;-88
2021/03/04 04:17:16;;;;;;;21.33;18.80;;;6.40;99.90;;;;;;5039594;28;20625;-88
2021/03/04 04:19:43;;;;;;;20.03;18.00;;;6.40;99.90;;;;;;5041393;28;21058;-87
2021/03/04 04:22:10;;;;;;;18.30;16.40;;;6.60;99.90;;;;;;5039398;28;20642;-88
2021/03/04 04:24:37;;;;;;;22.63;18.60;;;6.50;99.90;;;;;;5036816;28;20639;-88
2021/03/04 04:27:04;;;;;;;20.20;16.97;;;6.40;99.90;;;;;;5037760;28;20610;-88
2021/03/04 04:29:31;;;;;;;18.83;16.97;;;6.30;99.90;;;;;;5041963;28;20748;-89
2021/03/04 04:31:57;;;;;;;18.57;16.70;;;6.30;99.90;;;;;;5037569;28;20642;-88
2021/03/04 04:34:23;;;;;;;17.50;15.73;;;6.10;99.90;;;;;;5037768;28;21197;-88
2021/03/04 04:36:50;;;;;;;17.30;15.50;;;6.10;99.90;;;;;;5044129;28;20622;-89
2021/03/04 04:39:17;;;;;;;18.77;16.97;;;6.20;99.90;;;;;;5034661;28;20651;-89
2021/03/04 04:41:43;;;;;;;17.30;15.50;;;6.10;99.90;;;;;;5041740;28;20614;-88
2021/03/04 04:44:09;;;;;;;17.10;15.50;;;6.10;99.90;;;;;;5044955;28;20630;-88
2021/03/04 04:46:38;;;;;;;20.23;16.17;;;6.00;99.90;;;;;;5040210;28;20641;-88
2021/03/04 04:49:04;;;;;;;16.40;14.47;;;6.00;99.90;;;;;;5042981;28;20704;-87
2021/03/04 04:51:34;;;;;;;21.70;16.17;;;5.90;99.90;;;;;;5040656;28;20614;-87
2021/03/04 04:54:00;;;;;;;17.50;15.80;;;5.80;99.90;;;;;;5048896;28;20640;-88
2021/03/04 04:56:26;;;;;;;17.40;15.77;;;5.80;99.90;;;;;;5048104;28;20622;-87
2021/03/04 04:58:53;;;;;;;17.83;15.90;;;5.80;99.90;;;;;;5042440;28;20642;-87
2021/03/04 05:01:19;;;;;;;17.50;15.77;;;5.80;99.90;;;;;;5043254;28;20627;-86
2021/03/04 05:03:46;;;;;;;19.83;17.73;;;5.80;99.90;;;;;;5050094;28;20633;-87
2021/03/04 05:06:13;;;;;;;23.20;18.17;;;5.70;99.90;;;;;;5029816;28;20614;-87
2021/03/04 05:08:39;;;;;;;17.40;15.90;;;5.70;99.90;;;;;;5048103;28;20658;-86
2021/03/04 05:11:09;;;;;;;19.10;17.33;;;5.70;99.90;;;;;;5042460;28;20610;-86
2021/03/04 05:13:35;;;;;;;17.27;15.70;;;5.60;99.90;;;;;;5050590;28;20642;-87
2021/03/04 05:16:01;;;;;;;18.00;16.07;;;5.70;99.90;;;;;;5043148;28;20649;-86
2021/03/04 05:18:27;;;;;;;18.77;16.50;;;5.80;99.90;;;;;;5044445;28;20627;-86
2021/03/04 05:20:57;;;;;;;16.93;15.23;;;5.70;99.90;;;;;;5047508;28;20701;-86
2021/03/04 05:23:23;;;;;;;18.33;16.50;;;5.70;99.90;;;;;;5043364;28;20603;-87
2021/03/04 05:25:50;;;;;;;19.27;17.37;;;5.70;99.90;;;;;;5042721;28;20990;-88
2021/03/04 05:28:16;;;;;;;37.67;18.87;;;5.70;99.90;;;;;;5025183;28;20721;-88
2021/03/04 05:30:42;;;;;;;19.87;17.80;;;5.70;99.90;;;;;;5038573;28;21236;-87
2021/03/04 05:33:09;;;;;;;18.53;16.23;;;5.80;99.90;;;;;;5040645;28;21009;-88
2021/03/04 05:35:35;;;;;;;18.37;16.57;;;5.70;99.90;;;;;;5025008;28;20617;-87
2021/03/04 05:38:02;;;;;;;19.43;15.50;;;5.70;99.90;;;;;;5038672;28;20638;-86
2021/03/04 05:40:29;;;;;;;19.43;16.10;;;5.70;99.90;;;;;;5039648;28;20645;-86
2021/03/04 05:42:57;;;;;;;18.53;16.07;;;5.60;99.90;;;;;;5037690;28;21158;-87
2021/03/04 05:45:24;;;;;;;17.33;15.80;;;5.60;99.90;;;;;;5048453;28;20619;-88
2021/03/04 05:47:53;;;;;;;17.83;15.60;;;5.60;99.90;;;;;;5054467;28;20965;-88
2021/03/04 05:50:21;;;;;;;17.47;15.77;;;5.60;99.90;;;;;;5039712;28;20670;-88
2021/03/04 05:52:50;;;;;;;18.10;14.97;;;5.60;99.90;;;;;;5041998;28;20643;-88
2021/03/04 05:55:18;;;;;;;20.00;17.30;;;5.60;99.90;;;;;;5041865;28;20615;-87
2021/03/04 05:57:45;;;;;;;16.90;15.30;;;5.60;99.90;;;;;;5044645;28;20634;-87
2021/03/04 06:00:14;;;;;;;16.83;15.13;;;5.60;99.90;;;;;;5038251;28;21010;-87
2021/03/04 06:02:42;;;;;;;16.90;15.00;;;5.50;99.90;;;;;;5035850;28;20619;-88
2021/03/04 06:05:11;;;;;;;18.43;16.50;;;5.60;99.90;;;;;;5041000;28;20626;-87
2021/03/04 06:07:38;;;;;;;18.60;15.73;;;5.50;99.90;;;;;;5025591;28;20665;-88
2021/03/04 06:10:05;;;;;;;17.37;15.57;;;5.50;99.90;;;;;;5040814;28;20682;-88
2021/03/04 06:12:33;;;;;;;16.93;15.23;;;5.50;99.90;;;;;;5025424;28;20630;-90
2021/03/04 06:15:00;;;;;;;17.43;15.70;;;5.50;99.90;;;;;;5064803;28;20618;-87
2021/03/04 06:17:27;;;;;;;20.90;17.60;;;5.60;99.90;;;;;;5055163;28;20615;-87
2021/03/04 06:19:54;;;;;;;17.37;14.93;;;5.60;99.90;;;;;;5047443;28;20703;-88
2021/03/04 06:22:26;;;;;;;19.80;15.93;;;5.60;99.90;;;;;;5043146;28;20686;-88
2021/03/04 06:24:54;;;;;;;17.00;15.20;;;5.60;99.90;;;;;;5042754;28;20617;-88
2021/03/04 06:27:29;;;;;;;16.93;14.30;;;5.60;99.90;;;;;;5044679;28;20725;-88
2021/03/04 06:29:57;;;;;;;16.83;14.50;;;5.60;99.90;;;;;;5042337;28;20669;-88
2021/03/04 06:32:24;;;;;;;15.50;14.00;;;5.60;99.90;;;;;;5043206;28;20641;-88
2021/03/04 06:35:05;;;;;;;15.87;14.10;;;5.70;99.90;;;;;;5042193;28;21203;-88
2021/03/04 06:37:33;;;;;;;17.77;13.93;;;5.70;99.90;;;;;;5050595;28;20622;-87
2021/03/04 06:39:59;;;;;;;18.03;14.10;;;5.70;99.90;;;;;;5046091;28;20690;-87
2021/03/04 06:42:26;;;;;;;17.53;15.50;;;5.70;99.90;;;;;;5044791;28;20638;-88
2021/03/04 06:44:56;;;;;;;15.50;13.97;;;5.70;99.90;;;;;;5040436;28;20638;-87
2021/03/04 06:47:24;;;;;;;15.63;14.00;;;5.70;99.90;;;;;;5058016;28;20638;-90
2021/03/04 06:49:52;;;;;;;16.90;15.10;;;5.80;99.90;;;;;;5041370;28;20754;-87
2021/03/04 06:52:27;;;;;;;17.30;14.50;;;5.90;99.90;;;;;;5037899;28;20626;-87
2021/03/04 06:54:54;;;;;;;15.77;14.17;;;6.00;99.90;;;;;;5024533;28;20618;-87
2021/03/04 06:57:21;;;;;;;13.23;11.93;;;5.90;99.90;;;;;;5051415;28;20631;-88
2021/03/04 06:59:49;;;;;;;15.77;14.27;;;5.90;99.90;;;;;;5048052;28;20650;-88
2021/03/04 07:02:28;;;;;;;15.50;14.20;;;6.10;99.90;;;;;;5054817;28;20630;-87
2021/03/04 07:04:55;;;;;;;15.40;13.90;;;6.20;99.90;;;;;;5050437;28;20622;-87
2021/03/04 07:07:24;;;;;;;14.77;13.27;;;6.20;99.90;;;;;;5036483;28;20626;-87
2021/03/04 07:09:52;;;;;;;17.27;14.67;;;6.30;99.90;;;;;;5051597;28;20791;-87
2021/03/04 07:12:20;;;;;;;15.83;14.23;;;6.40;99.90;;;;;;5050902;28;21034;-88
2021/03/04 07:14:47;;;;;;;17.27;13.27;;;6.50;99.90;;;;;;5049962;28;20630;-86
2021/03/04 07:17:17;;;;;;;20.00;13.97;;;6.50;99.90;;;;;;5052550;28;20614;-87
2021/03/04 07:19:49;;;;;;;19.63;14.70;;;6.60;99.90;;;;;;5042162;28;20720;-88
2021/03/04 07:22:27;;;;;;;22.50;14.13;;;6.70;99.90;;;;;;5051703;28;20649;-90
2021/03/04 07:24:58;;;;;;;20.87;14.00;;;6.80;99.90;;;;;;5029446;28;20626;-88
2021/03/04 07:27:27;;;;;;;20.80;14.50;;;7.00;99.90;;;;;;5050541;28;20614;-87
2021/03/04 07:29:53;;;;;;;16.73;15.03;;;7.10;99.90;;;;;;5050939;28;20681;-89
2021/03/04 07:32:22;;;;;;;14.20;12.80;;;7.30;99.90;;;;;;5056503;28;20729;-90
2021/03/04 07:35:10;;;;;;;19.87;14.37;;;7.50;99.90;;;;;;5055100;28;20971;-89
2021/03/04 07:37:39;;;;;;;17.67;13.23;;;7.70;99.90;;;;;;5056698;28;20639;-90
2021/03/04 07:40:12;;;;;;;19.60;15.40;;;7.90;99.90;;;;;;5033625;28;20989;-88
2021/03/04 07:42:39;;;;;;;24.17;15.63;;;8.10;99.90;;;;;;5045463;28;20685;-88
2021/03/04 07:45:10;;;;;;;15.33;13.77;;;8.20;99.90;;;;;;5046467;28;20724;-88
2021/03/04 07:47:36;;;;;;;24.43;16.03;;;8.30;99.90;;;;;;5045538;28;20656;-89
2021/03/04 07:50:16;;;;;;;16.83;15.03;;;8.50;99.90;;;;;;5052432;28;20677;-90
2021/03/04 07:52:42;;;;;;;16.53;14.87;;;8.70;99.90;;;;;;5051077;28;20619;-89
2021/03/04 07:55:15;;;;;;;20.67;15.40;;;8.90;99.90;;;;;;5033615;28;20761;-90
2021/03/04 07:57:47;;;;;;;15.00;13.40;;;9.30;99.90;;;;;;5049548;28;20630;-90
2021/03/04 08:00:16;;;;;;;17.67;13.97;;;9.60;99.70;;;;;;5058369;28;20669;-88
2021/03/04 08:02:44;;;;;;;16.50;14.80;;;9.70;99.60;;;;;;5046160;28;20609;-90
2021/03/04 08:05:12;;;;;;;17.93;12.53;;;10.20;98.50;;;;;;5050946;28;21034;-90
2021/03/04 08:07:42;;;;;;;19.70;14.13;;;10.40;98.00;;;;;;5034170;28;20617;-87
2021/03/04 08:10:11;;;;;;;18.60;15.33;;;10.60;96.90;;;;;;5056374;28;20677;-87
2021/03/04 08:12:58;;;;;;;14.83;12.70;;;10.50;96.70;;;;;;5053723;28;20622;-89
2021/03/04 08:15:33;;;;;;;20.47;13.50;;;10.70;96.20;;;;;;5055694;28;20705;-89
2021/03/04 08:17:59;;;;;;;16.57;14.00;;;10.90;95.70;;;;;;5042237;28;20630;-88
2021/03/04 08:20:26;;;;;;;13.33;12.00;;;10.80;94.90;;;;;;5042687;28;20777;-88
2021/03/04 08:22:55;;;;;;;17.53;12.47;;;10.90;94.60;;;;;;5042285;28;20649;-88
2021/03/04 08:25:25;;;;;;;17.70;12.60;;;11.20;93.80;;;;;;5057358;28;20619;-89
2021/03/04 08:27:54;;;;;;;20.10;12.73;;;11.30;94.10;;;;;;5052633;28;20595;-89
2021/03/04 08:30:27;;;;;;;16.30;11.40;;;11.40;93.70;;;;;;5057298;28;20693;-89
2021/03/04 08:32:54;;;;;;;26.90;12.03;;;11.70;92.90;;;;;;5050071;28;20681;-91
2021/03/04 08:35:22;;;;;;;14.70;11.77;;;11.80;92.70;;;;;;5051224;28;20634;-91
2021/03/04 08:37:57;;;;;;;13.40;12.00;;;11.90;91.80;;;;;;5049986;28;20629;-93
2021/03/04 08:40:26;;;;;;;12.30;10.90;;;11.80;92.10;;;;;;5056511;28;20748;-93
2021/03/04 08:42:52;;;;;;;18.77;12.67;;;12.00;92.00;;;;;;5051499;28;20657;-92
2021/03/04 08:45:29;;;;;;;14.70;12.10;;;12.10;92.00;;;;;;5055481;28;21197;-93
2021/03/04 08:47:56;;;;;;;16.70;12.53;;;12.00;92.30;;;;;;5053488;28;20630;-93
2021/03/04 08:50:36;;;;;;;17.73;12.40;;;12.10;92.30;;;;;;5051745;28;20700;-93
2021/03/04 08:53:13;;;;;;;13.70;10.53;;;12.30;91.90;;;;;;5047927;28;20649;-93
2021/03/04 08:56:10;;;;;;;15.20;10.47;;;12.50;90.30;;;;;;5045794;28;20636;-93
2021/03/04 08:58:42;;;;;;;14.33;10.87;;;12.80;89.70;;;;;;5033649;28;20625;-93
2021/03/04 09:01:09;;;;;;;12.77;10.53;;;12.80;89.20;;;;;;5048440;28;20625;-93
2021/03/04 09:03:37;;;;;;;11.07;9.93;;;13.20;87.10;;;;;;5054374;28;20717;-94
2021/03/04 09:06:05;;;;;;;13.60;10.73;;;13.00;86.20;;;;;;5052075;28;20618;-92
2021/03/04 09:08:35;;;;;;;16.83;10.97;;;13.10;85.30;;;;;;5066510;28;20733;-93
2021/03/04 09:11:05;;;;;;;13.50;10.97;;;13.30;85.70;;;;;;5031713;28;20697;-93
2021/03/04 09:13:34;;;;;;;17.27;10.50;;;13.40;86.30;;;;;;5055722;28;20629;-92
2021/03/04 09:16:05;;;;;;;13.03;10.97;;;13.50;85.60;;;;;;5052550;28;20626;-93
2021/03/04 09:18:34;;;;;;;10.47;9.37;;;13.40;84.80;;;;;;5064708;28;20625;-93
2021/03/04 09:21:01;;;;;;;16.90;11.13;;;13.50;85.50;;;;;;5062298;28;20622;-94
2021/03/04 09:23:43;;;;;;;14.50;9.10;;;13.40;85.10;;;;;;5064171;28;20649;-93
2021/03/04 09:26:11;;;;;;;14.50;8.13;;;13.60;85.10;;;;;;5052169;28;20626;-92
2021/03/04 09:28:38;;;;;;;15.83;10.87;;;13.90;83.90;;;;;;5049237;28;20670;-93
2021/03/04 09:31:11;;;;;;;14.67;10.60;;;13.80;82.60;;;;;;5047486;28;20684;-92
2021/03/04 09:33:38;;;;;;;15.33;10.27;;;13.90;85.60;;;;;;5054369;28;20634;-94
2021/03/04 09:36:06;;;;;;;16.63;10.97;;;14.20;81.90;;;;;;5049313;28;20663;-92
2021/03/04 09:38:34;;;;;;;11.63;10.03;;;14.20;81.50;;;;;;5061328;28;20641;-93
2021/03/04 09:41:13;;;;;;;14.10;10.87;;;14.70;80.20;;;;;;5071079;28;20628;-92
2021/03/04 09:43:43;;;;;;;15.20;8.90;;;14.70;78.90;;;;;;5060224;28;20630;-92
2021/03/04 09:46:09;;;;;;;10.90;9.20;;;15.00;79.30;;;;;;5052730;28;20610;-94
2021/03/04 09:48:39;;;;;;;13.17;8.87;;;15.20;78.70;;;;;;5046311;28;21031;-93
2021/03/04 09:51:06;;;;;;;10.80;8.10;;;15.00;76.50;;;;;;5051103;28;20677;-92
2021/03/04 09:53:48;;;;;;;12.73;7.80;;;14.70;75.00;;;;;;5055598;28;20626;-92
2021/03/04 09:56:23;;;;;;;20.33;8.70;;;14.40;75.90;;;;;;5057756;28;20633;-94
2021/03/04 09:58:50;;;;;;;10.37;6.93;;;14.40;76.70;;;;;;5051608;28;20771;-93
2021/03/04 10:01:33;;;;;;;13.67;8.90;;;14.90;75.90;;;;;;5036538;28;20721;-92
2021/03/04 10:06:45;;;;;;;11.77;7.17;;;15.10;74.40;;;;;;5056295;28;20636;-92
2021/03/04 10:11:53;;;;;;;11.70;6.90;;;15.60;73.00;;;;;;5052369;28;20654;-92
2021/03/04 10:14:21;;;;;;;11.23;6.97;;;15.80;71.90;;;;;;5058149;28;21054;-93
2021/03/04 10:22:24;;;;;;;12.37;8.17;;;15.90;71.10;;;;;;5062297;28;20616;-94
2021/03/04 10:24:51;;;;;;;13.10;7.00;;;16.00;71.20;;;;;;5047800;28;20663;-95
2021/03/04 10:33:16;;;;;;;21.43;9.03;;;16.60;69.00;;;;;;5055569;28;20650;-95
2021/03/04 10:41:05;;;;;;;11.97;8.10;;;16.70;68.90;;;;;;5051625;28;20630;-93
2021/03/04 10:43:36;;;;;;;9.87;7.13;;;16.80;67.40;;;;;;5059613;28;20642;-94
2021/03/04 10:46:08;;;;;;;11.20;7.30;;;17.00;67.30;;;;;;5030687;28;21175;-93
2021/03/04 10:48:35;;;;;;;16.27;7.70;;;17.00;67.70;;;;;;5049199;28;20634;-93
2021/03/04 10:51:02;;;;;;;11.67;8.50;;;17.30;67.90;;;;;;5052502;28;20638;-93
2021/03/04 10:53:36;;;;;;;11.30;6.83;;;17.50;67.40;;;;;;5064612;28;20679;-93
2021/03/04 10:56:04;;;;;;;17.73;8.30;;;17.40;65.30;;;;;;5062983;28;20640;-93
2021/03/04 10:58:34;;;;;;;19.23;7.90;;;17.50;64.80;;;;;;5063426;28;20633;-94
2021/03/04 11:01:00;;;;;;;17.03;8.13;;;17.80;64.80;;;;;;5050304;28;20618;-92
2021/03/04 11:03:28;;;;;;;12.30;7.70;;;17.90;64.00;;;;;;5053952;28;20636;-93
2021/03/04 11:05:56;;;;;;;10.37;9.27;;;18.20;64.20;;;;;;5052662;28;20618;-94
2021/03/04 11:08:22;;;;;;;12.23;7.67;;;18.20;63.30;;;;;;5053143;28;20995;-94
2021/03/04 11:10:49;;;;;;;13.80;8.20;;;18.50;62.90;;;;;;5032443;28;20664;-93
2021/03/04 11:13:17;;;;;;;11.23;7.47;;;18.90;62.10;;;;;;5050023;28;20634;-94
2021/03/04 11:18:24;;;;;;;14.03;9.43;;;19.30;61.40;;;;;;5041044;28;20666;-96
2021/03/04 11:20:57;;;;;;;13.57;9.00;;;19.50;61.60;;;;;;5046410;28;20879;-93
2021/03/04 11:23:26;;;;;;;12.77;8.70;;;19.40;61.30;;;;;;5049003;28;20658;-94
2021/03/04 11:25:53;;;;;;;14.80;8.60;;;18.80;61.00;;;;;;5038047;28;20625;-93
2021/03/04 11:28:21;;;;;;;17.37;10.20;;;19.30;61.00;;;;;;5052873;28;20725;-95
2021/03/04 11:30:47;;;;;;;11.80;8.17;;;19.50;59.80;;;;;;5043220;28;21044;-92
2021/03/04 11:33:15;;;;;;;10.97;8.83;;;19.70;60.20;;;;;;5047963;28;20742;-93
2021/03/04 11:35:42;;;;;;;15.70;9.50;;;19.40;59.10;;;;;;5053924;28;20614;-94
2021/03/04 11:38:10;;;;;;;15.97;10.57;;;19.20;59.80;;;;;;5051355;28;20682;-92
2021/03/04 11:40:38;;;;;;;17.63;11.87;;;19.60;60.50;;;;;;5054083;28;20666;-93
2021/03/04 11:43:04;;;;;;;13.00;10.40;;;20.00;60.20;;;;;;5052385;28;20647;-94
2021/03/04 11:45:31;;;;;;;17.03;10.50;;;20.10;59.70;;;;;;5048885;28;21085;-92
2021/03/04 11:47:59;;;;;;;17.53;11.80;;;19.90;59.30;;;;;;5056401;28;20591;-90
2021/03/04 11:50:26;;;;;;;18.50;10.73;;;19.70;59.40;;;;;;5063146;28;20679;-92
2021/03/04 11:52:54;;;;;;;14.77;11.03;;;19.50;59.20;;;;;;5068006;28;20637;-91
2021/03/04 11:55:44;;;;;;;15.83;11.70;;;19.10;59.80;;;;;;5077014;28;20644;-90
2021/03/04 11:58:10;;;;;;;18.47;11.00;;;19.10;60.40;;;;;;5064193;28;20630;-90
2021/03/04 12:00:39;;;;;;;14.60;10.87;;;18.90;61.50;;;;;;5069594;28;20701;-92
2021/03/04 12:03:07;;;;;;;18.00;12.17;;;19.40;61.30;;;;;;5060013;28;20603;-91
2021/03/04 12:05:33;;;;;;;17.87;11.97;;;19.40;60.70;;;;;;5060446;28;20741;-92
2021/03/04 12:08:00;;;;;;;17.60;11.67;;;19.20;61.30;;;;;;5069200;28;20613;-91
2021/03/04 12:10:26;;;;;;;16.63;11.60;;;19.10;61.30;;;;;;5064395;28;21167;-91
2021/03/04 12:12:55;;;;;;;25.43;11.43;;;18.20;60.60;;;;;;5057300;28;20644;-90
2021/03/04 12:15:22;;;;;;;22.73;10.07;;;18.10;61.80;;;;;;5052146;28;20602;-91
2021/03/04 12:17:48;;;;;;;12.33;8.20;;;18.20;62.00;;;;;;5043814;28;20638;-91
2021/03/04 12:20:15;;;;;;;15.77;10.07;;;18.30;60.80;;;;;;5058736;28;20678;-91
2021/03/04 12:22:42;;;;;;;16.40;10.57;;;18.30;60.10;;;;;;5057124;28;20739;-91
2021/03/04 12:25:09;;;;;;;15.10;9.70;;;17.80;61.30;;;;;;5048351;28;20622;-91
2021/03/04 12:27:36;;;;;;;11.40;9.10;;;18.00;61.30;;;;;;5049374;28;20636;-92
2021/03/04 12:30:05;;;;;;;15.27;9.87;;;18.10;60.50;;;;;;5045865;28;20776;-92
2021/03/04 12:32:31;;;;;;;23.63;10.20;;;18.00;60.60;;;;;;5042822;28;20635;-92
2021/03/04 12:35:00;;;;;;;13.57;9.53;;;18.00;60.90;;;;;;5050844;28;20618;-92
2021/03/04 12:37:26;;;;;;;15.93;10.53;;;17.60;61.80;;;;;;5051691;28;20985;-91
2021/03/04 12:39:53;;;;;;;15.23;9.00;;;17.40;62.20;;;;;;5045299;28;20980;-92
2021/03/04 12:42:19;;;;;;;23.00;11.23;;;18.00;62.60;;;;;;5047314;28;20635;-92
2021/03/04 12:44:46;;;;;;;13.60;9.63;;;19.00;61.10;;;;;;5054482;28;20635;-94
2021/03/04 12:47:13;;;;;;;15.10;8.30;;;18.80;60.10;;;;;;5046047;28;20634;-92
2021/03/04 12:49:40;;;;;;;14.73;10.07;;;18.30;59.30;;;;;;5049562;28;20713;-91
2021/03/04 12:52:06;;;;;;;20.60;8.63;;;17.70;59.90;;;;;;5048019;28;20656;-92
2021/03/04 12:54:33;;;;;;;10.83;7.57;;;17.30;59.90;;;;;;5044136;28;20614;-89
2021/03/04 12:56:59;;;;;;;11.33;7.60;;;17.20;60.30;;;;;;5051366;28;20630;-89
2021/03/04 12:59:25;;;;;;;16.90;7.87;;;17.40;60.80;;;;;;5042475;28;20646;-90
2021/03/04 13:01:52;;;;;;;15.20;7.20;;;17.30;60.90;;;;;;5055248;28;20657;-89
2021/03/04 13:04:19;;;;;;;12.90;5.73;;;17.20;61.30;;;;;;5069374;28;20599;-90
2021/03/04 13:06:46;;;;;;;13.37;5.20;;;17.40;61.30;;;;;;5062046;28;20768;-90